Etusivu
METAR-TAF:

METAR-TAF

Lentoasemat :

Kushiron lentoasema

Kushiro, Japani

Leveyspiiri: 43-02N, Pituuspiiri: 144-12E, korkeus merenpinnasta: 95 m

Tämänhetkinen sää

Tämä raportti tehtiin 55 minuuttia sitten, kello 08.00 UTC
Tuuli 11 kn lännestä
Lämpötila 0°C
Kosteus 47%
Ilmanpaine 1025 hPa
Näkyvyys 10 km tai enemmän
Muutamia pilviä 3000 ft:n korkeudessa

METAR: RJCK 200800Z 26011KT 9999 FEW030 M00/M10 Q1025

Aika: 17:55 (08:55 UTC)

Sääennuste

Tämä raportti tehtiin 3 tuntia ja 45 minuuttia sitten, kello 05.10 UTC
Ennuste voimassa 20. päivästä klo 06 UTC - 21. päivään klo 12 UTC
Tuuli 8 kn lännestä
Näkyvyys 10 km tai enemmän
Muutamia pilviä 2000 ft:n korkeudessa
Hajanaisia pilviä 4000 ft:n korkeudessa

TAF: RJCK 200510Z 2006/2112 27008KT 9999 FEW020 SCT040

Säähavainnot ja -ennusteet yli 4000 lentoasemalta (METAR- ja TAF-raportit).

Käytössä olevat sääasemat on merkitty karttaan keltaisilla ja punaisilla pisteillä.

Aseta hiiri pisteen päälle nähdäksesi sääaseman nimen.

Klikkaa sitten nähdäksesi säähavainnot ja -ennusteet.

Kartan vaihtaminen: klikkaa mustalla rastilla varustettuja vihreitä pisteitä, niin voit zoomata sisään; viivalla varustettua vihreää pistettä, niin voit zoomata ulos tai vihreitä nuolia, niin pääset viereisille kartoille.


METAR-TAF: